Check out our new PWSWeather beta!
PWSweather.com
Personal Weather Stations
Station Observations

DeskleSI

Lat: 46.0525, Lon: 13.6103

Elevation: 300

Station Type: Oregon Scientific WMR200

http://vreme-deskle.slohosting.com/

Latest ConditionsUpdated 11:55:02 AM GMT+01:01 Wednesday, Feb 26, 2020
Currently Today's Max Today's Min Today's Average
Temperature 51.1°F10.6°C 52.0°F11.1°C 48.6°F9.2°C 51.2°F10.7°C
Dew Point 47.6°F8.7°C 51.3°F10.7°C 47.6°F8.7°C 49.4°F9.7°C
Winds 4.7 mph WNW7.6 kmh WNW 9.8 mph -15.8 kmh - - 3.9 mph 6.3 kmh
Wind Gusts 11.0 mph17.7 kmh 15.4 mph24.8 kmh - -
Humidity 88% 99% 88% 93%
Pressure 29.41 in995.9 mb 29.59 in1002.0 mb 29.39 in995.3 mb -
Precipitation - 0.13 in3.3 mm - -
Hour Temp Dew Point Humidity Winds Wind Gusts Pressure Precip Precip Rate Daily Precip Total
11:55 AM 51.1°F10.6°C 47.6°F8.7°C 88% 4.7 mph WNW7.6 kmh WNW 11.0 mph17.7 kmh 29.41 in995.9 mb 0.00 in0.0 mm 0.00 in0.0 mm 0.13 in3.3 mm
11:50 AM 51.3°F10.7°C 47.8°F8.8°C 88% 6.0 mph NW9.7 kmh NW 11.0 mph17.7 kmh 29.41 in995.9 mb 0.00 in0.0 mm 0.00 in0.0 mm 0.13 in3.3 mm
11:45 AM 51.3°F10.7°C 47.8°F8.8°C 88% 3.6 mph NW5.8 kmh NW 14.8 mph23.8 kmh 29.41 in995.9 mb 0.00 in0.0 mm 0.00 in0.0 mm 0.13 in3.3 mm
11:40 AM 51.3°F10.7°C 47.8°F8.8°C 88% 6.3 mph WNW10.1 kmh WNW 14.8 mph23.8 kmh 29.41 in995.9 mb 0.00 in0.0 mm 0.00 in0.0 mm 0.13 in3.3 mm
11:35 AM 51.3°F10.7°C 47.8°F8.8°C 88% 3.4 mph NW5.5 kmh NW 11.0 mph17.7 kmh 29.41 in995.9 mb 0.00 in0.0 mm 0.00 in0.0 mm 0.13 in3.3 mm
11:30 AM 51.3°F10.7°C 47.8°F8.8°C 88% 4.7 mph W7.6 kmh W 11.0 mph17.7 kmh 29.41 in995.9 mb 0.00 in0.0 mm 0.00 in0.0 mm 0.13 in3.3 mm
11:25 AM 51.3°F10.7°C 47.8°F8.8°C 88% 5.4 mph SW8.7 kmh SW 9.2 mph14.8 kmh 29.41 in995.9 mb 0.00 in0.0 mm 0.00 in0.0 mm 0.13 in3.3 mm
11:20 AM 51.3°F10.7°C 48.1°F8.9°C 89% 1.1 mph W1.8 kmh W 10.7 mph17.2 kmh 29.41 in995.9 mb 0.00 in0.0 mm 0.00 in0.0 mm 0.13 in3.3 mm
11:15 AM 51.3°F10.7°C 48.1°F8.9°C 89% 6.0 mph W9.7 kmh W 10.7 mph17.2 kmh 29.41 in995.9 mb 0.00 in0.0 mm 0.00 in0.0 mm 0.13 in3.3 mm
11:10 AM 51.4°F10.8°C 48.3°F9.1°C 89% 6.0 mph W9.7 kmh W 8.9 mph14.3 kmh 29.41 in995.9 mb 0.00 in0.0 mm 0.00 in0.0 mm 0.13 in3.3 mm
11:05 AM 51.3°F10.7°C 48.1°F8.9°C 89% 2.9 mph WSW4.7 kmh WSW 6.3 mph10.1 kmh 29.41 in995.9 mb 0.00 in0.0 mm 0.00 in0.0 mm 0.13 in3.3 mm
11:00 AM 51.1°F10.6°C 48.0°F8.9°C 89% 3.4 mph WSW5.5 kmh WSW 7.8 mph12.6 kmh 29.39 in995.3 mb 0.00 in0.0 mm 0.00 in0.0 mm 0.13 in3.3 mm
10:55 AM 51.1°F10.6°C 48.0°F8.9°C 89% 2.7 mph W4.3 kmh W 7.8 mph12.6 kmh 29.39 in995.3 mb 0.00 in0.0 mm 0.00 in0.0 mm 0.13 in3.3 mm
10:50 AM 50.9°F10.5°C 47.8°F8.8°C 89% 4.9 mph W7.9 kmh W 6.3 mph10.1 kmh 29.39 in995.3 mb 0.00 in0.0 mm 0.00 in0.0 mm 0.13 in3.3 mm
10:45 AM 51.1°F10.6°C 48.0°F8.9°C 89% Calm Calm 13.0 mph20.9 kmh 29.41 in995.9 mb 0.04 in1.0 mm 0.00 in0.0 mm 0.13 in3.3 mm
10:40 AM 51.1°F10.6°C 48.0°F8.9°C 89% 6.9 mph S11.1 kmh S 13.2 mph21.2 kmh 29.41 in995.9 mb 0.04 in1.0 mm 0.00 in0.0 mm 0.13 in3.3 mm
10:35 AM 51.1°F10.6°C 48.0°F8.9°C 89% 5.8 mph S9.3 kmh S 13.2 mph21.2 kmh 29.41 in995.9 mb 0.04 in1.0 mm 0.00 in0.0 mm 0.13 in3.3 mm
10:30 AM 51.1°F10.6°C 48.0°F8.9°C 89% 7.6 mph SW12.2 kmh SW 13.0 mph20.9 kmh 29.39 in995.3 mb 0.04 in1.0 mm 0.00 in0.0 mm 0.13 in3.3 mm
10:25 AM 51.3°F10.7°C 48.1°F8.9°C 89% 7.4 mph WSW11.9 kmh WSW 12.1 mph19.5 kmh 29.39 in995.3 mb 0.04 in1.0 mm 0.00 in0.0 mm 0.13 in3.3 mm
10:20 AM 51.3°F10.7°C 48.1°F8.9°C 89% 3.6 mph WSW5.8 kmh WSW 6.3 mph10.1 kmh 29.39 in995.3 mb 0.04 in1.0 mm 0.00 in0.0 mm 0.13 in3.3 mm
10:15 AM 51.3°F10.7°C 48.1°F8.9°C 89% 3.8 mph WSW6.1 kmh WSW 7.4 mph11.9 kmh 29.41 in995.9 mb 0.04 in1.0 mm 0.00 in0.0 mm 0.13 in3.3 mm
10:10 AM 51.3°F10.7°C 48.1°F8.9°C 89% 2.5 mph W4.0 kmh W 10.5 mph16.9 kmh 29.41 in995.9 mb 0.04 in1.0 mm 0.00 in0.0 mm 0.13 in3.3 mm
10:05 AM 51.1°F10.6°C 48.0°F8.9°C 89% 5.6 mph W9.0 kmh W 13.0 mph20.9 kmh 29.41 in995.9 mb 0.04 in1.0 mm 0.00 in0.0 mm 0.13 in3.3 mm
10:00 AM 51.3°F10.7°C 48.1°F8.9°C 89% 4.9 mph WSW7.9 kmh WSW 13.0 mph20.9 kmh 29.39 in995.3 mb 0.04 in1.0 mm 0.00 in0.0 mm 0.13 in3.3 mm
09:55 AM 51.3°F10.7°C 48.1°F8.9°C 89% 3.8 mph W6.1 kmh W 14.8 mph23.8 kmh 29.39 in995.3 mb 0.04 in1.0 mm 0.00 in0.0 mm 0.13 in3.3 mm
09:50 AM 51.4°F10.8°C 48.6°F9.2°C 90% 9.8 mph WNW15.8 kmh WNW 15.4 mph24.8 kmh 29.39 in995.3 mb 0.04 in1.0 mm 0.48 in12.2 mm 0.13 in3.3 mm
09:45 AM 51.6°F10.9°C 48.5°F9.2°C 89% 9.2 mph W14.8 kmh W 15.4 mph24.8 kmh 29.39 in995.3 mb 0.00 in0.0 mm 0.00 in0.0 mm 0.09 in2.3 mm
09:40 AM 51.6°F10.9°C 48.5°F9.2°C 89% 8.1 mph WSW13.0 kmh WSW 11.0 mph17.7 kmh 29.39 in995.3 mb 0.00 in0.0 mm 0.00 in0.0 mm 0.09 in2.3 mm
09:35 AM 51.6°F10.9°C 48.5°F9.2°C 89% 3.1 mph W5.0 kmh W 8.9 mph14.3 kmh 29.39 in995.3 mb 0.00 in0.0 mm 0.00 in0.0 mm 0.09 in2.3 mm
09:30 AM 51.8°F11.0°C 48.4°F9.1°C 88% 6.0 mph W9.7 kmh W 8.9 mph14.3 kmh 29.39 in995.3 mb 0.00 in0.0 mm 0.00 in0.0 mm 0.09 in2.3 mm
09:25 AM 52.0°F11.1°C 48.8°F9.3°C 89% 3.4 mph WSW5.5 kmh WSW 9.8 mph15.8 kmh 29.39 in995.3 mb 0.00 in0.0 mm 0.00 in0.0 mm 0.09 in2.3 mm
09:20 AM 51.8°F11.0°C 48.7°F9.3°C 89% 5.4 mph WSW8.7 kmh WSW 9.8 mph15.8 kmh 29.39 in995.3 mb 0.00 in0.0 mm 0.00 in0.0 mm 0.09 in2.3 mm
09:15 AM 51.6°F10.9°C 48.8°F9.3°C 90% 5.8 mph W9.3 kmh W 9.8 mph15.8 kmh 29.41 in995.9 mb 0.00 in0.0 mm 0.00 in0.0 mm 0.09 in2.3 mm
09:10 AM 51.4°F10.8°C 48.6°F9.2°C 90% 4.7 mph WSW7.6 kmh WSW 9.8 mph15.8 kmh 29.41 in995.9 mb 0.00 in0.0 mm 0.00 in0.0 mm 0.09 in2.3 mm
09:05 AM 51.6°F10.9°C 48.8°F9.3°C 90% 3.8 mph W6.1 kmh W 7.4 mph11.9 kmh 29.41 in995.9 mb 0.00 in0.0 mm 0.00 in0.0 mm 0.09 in2.3 mm
09:00 AM 51.6°F10.9°C 48.8°F9.3°C 90% 3.8 mph W6.1 kmh W 6.0 mph9.7 kmh 29.41 in995.9 mb 0.00 in0.0 mm 0.00 in0.0 mm 0.09 in2.3 mm
08:55 AM 51.4°F10.8°C 48.3°F9.1°C 89% 4.7 mph W7.6 kmh W 8.5 mph13.7 kmh 29.41 in995.9 mb 0.00 in0.0 mm 0.00 in0.0 mm 0.09 in2.3 mm
08:50 AM 51.4°F10.8°C 48.6°F9.2°C 90% 2.2 mph W3.5 kmh W 8.5 mph13.7 kmh 29.41 in995.9 mb 0.00 in0.0 mm 0.00 in0.0 mm 0.09 in2.3 mm
08:45 AM 51.4°F10.8°C 48.6°F9.2°C 90% 2.2 mph W3.5 kmh W 10.5 mph16.9 kmh 29.41 in995.9 mb 0.00 in0.0 mm 0.00 in0.0 mm 0.09 in2.3 mm
08:40 AM 51.4°F10.8°C 48.6°F9.2°C 90% 1.1 mph WNW1.8 kmh WNW 10.5 mph16.9 kmh 29.41 in995.9 mb 0.00 in0.0 mm 0.00 in0.0 mm 0.09 in2.3 mm
08:35 AM 51.4°F10.8°C 48.6°F9.2°C 90% 4.5 mph NW7.2 kmh NW 8.1 mph13.0 kmh 29.41 in995.9 mb 0.00 in0.0 mm 0.00 in0.0 mm 0.09 in2.3 mm
08:30 AM 51.4°F10.8°C 48.6°F9.2°C 90% 4.0 mph NW6.4 kmh NW 12.3 mph19.8 kmh 29.41 in995.9 mb 0.00 in0.0 mm 0.00 in0.0 mm 0.09 in2.3 mm
08:25 AM 51.4°F10.8°C 48.6°F9.2°C 90% 4.7 mph WNW7.6 kmh WNW 12.3 mph19.8 kmh 29.41 in995.9 mb 0.00 in0.0 mm 0.00 in0.0 mm 0.09 in2.3 mm
08:20 AM 51.3°F10.7°C 48.7°F9.3°C 91% 4.0 mph WSW6.4 kmh WSW 8.5 mph13.7 kmh 29.41 in995.9 mb 0.00 in0.0 mm 0.00 in0.0 mm 0.09 in2.3 mm
08:15 AM 51.3°F10.7°C 48.4°F9.1°C 90% 2.9 mph WSW4.7 kmh WSW 6.3 mph10.1 kmh 29.41 in995.9 mb 0.00 in0.0 mm 0.00 in0.0 mm 0.09 in2.3 mm
08:10 AM 51.3°F10.7°C 48.4°F9.1°C 90% 2.7 mph NW4.3 kmh NW 6.3 mph10.1 kmh 29.41 in995.9 mb 0.00 in0.0 mm 0.00 in0.0 mm 0.09 in2.3 mm
08:05 AM 51.3°F10.7°C 48.4°F9.1°C 90% 2.2 mph W3.5 kmh W 6.3 mph10.1 kmh 29.41 in995.9 mb 0.00 in0.0 mm 0.00 in0.0 mm 0.09 in2.3 mm
08:00 AM 51.3°F10.7°C 48.4°F9.1°C 90% 2.0 mph W3.2 kmh W 6.9 mph11.1 kmh 29.41 in995.9 mb 0.00 in0.0 mm 0.00 in0.0 mm 0.09 in2.3 mm
07:55 AM 51.4°F10.8°C 48.6°F9.2°C 90% 3.1 mph WNW5.0 kmh WNW 7.2 mph11.6 kmh 29.41 in995.9 mb 0.00 in0.0 mm 0.00 in0.0 mm 0.09 in2.3 mm
07:50 AM 51.4°F10.8°C 48.6°F9.2°C 90% 2.7 mph WNW4.3 kmh WNW 8.1 mph13.0 kmh 29.41 in995.9 mb 0.00 in0.0 mm 0.00 in0.0 mm 0.09 in2.3 mm
07:45 AM 51.6°F10.9°C 48.8°F9.3°C 90% 2.5 mph WNW4.0 kmh WNW 11.0 mph17.7 kmh 29.41 in995.9 mb 0.00 in0.0 mm 0.00 in0.0 mm 0.09 in2.3 mm
07:40 AM 51.6°F10.9°C 48.8°F9.3°C 90% 6.5 mph WNW10.5 kmh WNW 11.0 mph17.7 kmh 29.41 in995.9 mb 0.00 in0.0 mm 0.00 in0.0 mm 0.09 in2.3 mm
07:35 AM 51.4°F10.8°C 48.6°F9.2°C 90% 7.6 mph WNW12.2 kmh WNW 8.9 mph14.3 kmh 29.41 in995.9 mb 0.00 in0.0 mm 0.00 in0.0 mm 0.09 in2.3 mm
07:30 AM 51.6°F10.9°C 48.8°F9.3°C 90% 4.7 mph W7.6 kmh W 8.5 mph13.7 kmh 29.41 in995.9 mb 0.00 in0.0 mm 0.00 in0.0 mm 0.09 in2.3 mm
07:25 AM 51.6°F10.9°C 49.1°F9.5°C 91% 4.3 mph W6.9 kmh W 9.4 mph15.1 kmh 29.41 in995.9 mb 0.00 in0.0 mm 0.00 in0.0 mm 0.09 in2.3 mm
07:20 AM 51.4°F10.8°C 49.2°F9.6°C 92% 6.3 mph W10.1 kmh W 9.4 mph15.1 kmh 29.41 in995.9 mb 0.00 in0.0 mm 0.00 in0.0 mm 0.09 in2.3 mm
07:15 AM 51.4°F10.8°C 49.2°F9.6°C 92% 5.8 mph WSW9.3 kmh WSW 8.1 mph13.0 kmh 29.41 in995.9 mb 0.00 in0.0 mm 0.00 in0.0 mm 0.09 in2.3 mm
07:10 AM 51.1°F10.6°C 49.1°F9.5°C 93% 5.6 mph W9.0 kmh W 10.1 mph16.3 kmh 29.41 in995.9 mb 0.00 in0.0 mm 0.00 in0.0 mm 0.09 in2.3 mm
07:05 AM 51.1°F10.6°C 49.1°F9.5°C 93% 6.0 mph W9.7 kmh W 10.1 mph16.3 kmh 29.41 in995.9 mb 0.00 in0.0 mm 0.00 in0.0 mm 0.09 in2.3 mm
07:00 AM 51.1°F10.6°C 49.1°F9.5°C 93% 5.4 mph W8.7 kmh W 6.5 mph10.5 kmh 29.41 in995.9 mb 0.00 in0.0 mm 0.00 in0.0 mm 0.09 in2.3 mm
06:55 AM 51.1°F10.6°C 49.1°F9.5°C 93% Calm Calm 5.8 mph9.3 kmh 29.41 in995.9 mb 0.00 in0.0 mm 0.00 in0.0 mm 0.09 in2.3 mm
06:50 AM 51.3°F10.7°C 49.6°F9.8°C 94% 3.1 mph WNW5.0 kmh WNW 8.1 mph13.0 kmh 29.41 in995.9 mb 0.00 in0.0 mm 0.00 in0.0 mm 0.09 in2.3 mm
06:45 AM 51.3°F10.7°C 49.6°F9.8°C 94% 5.8 mph W9.3 kmh W 8.1 mph13.0 kmh 29.39 in995.3 mb 0.00 in0.0 mm 0.00 in0.0 mm 0.09 in2.3 mm
06:40 AM 50.9°F10.5°C 49.2°F9.6°C 94% 4.5 mph W7.2 kmh W 8.7 mph14.0 kmh 29.39 in995.3 mb 0.00 in0.0 mm 0.00 in0.0 mm 0.09 in2.3 mm
06:35 AM 50.9°F10.5°C 49.2°F9.6°C 94% 2.9 mph W4.7 kmh W 8.7 mph14.0 kmh 29.39 in995.3 mb 0.00 in0.0 mm 0.00 in0.0 mm 0.09 in2.3 mm
06:30 AM 51.1°F10.6°C 49.4°F9.7°C 94% 3.8 mph W6.1 kmh W 10.1 mph16.3 kmh 29.41 in995.9 mb 0.00 in0.0 mm 0.00 in0.0 mm 0.09 in2.3 mm
06:25 AM 51.1°F10.6°C 49.4°F9.7°C 94% 5.8 mph W9.3 kmh W 10.1 mph16.3 kmh 29.41 in995.9 mb 0.00 in0.0 mm 0.00 in0.0 mm 0.09 in2.3 mm
06:20 AM 51.1°F10.6°C 49.4°F9.7°C 94% 5.4 mph W8.7 kmh W 6.7 mph10.8 kmh 29.41 in995.9 mb 0.00 in0.0 mm 0.00 in0.0 mm 0.09 in2.3 mm
06:15 AM 51.4°F10.8°C 49.8°F9.9°C 94% 4.0 mph W6.4 kmh W 8.1 mph13.0 kmh 29.41 in995.9 mb 0.00 in0.0 mm 0.00 in0.0 mm 0.09 in2.3 mm
06:10 AM 51.4°F10.8°C 49.8°F9.9°C 94% Calm Calm 8.1 mph13.0 kmh 29.41 in995.9 mb 0.00 in0.0 mm 0.00 in0.0 mm 0.09 in2.3 mm
06:05 AM 51.4°F10.8°C 50.1°F10.1°C 95% 4.3 mph W6.9 kmh W 8.1 mph13.0 kmh 29.41 in995.9 mb 0.00 in0.0 mm 0.00 in0.0 mm 0.09 in2.3 mm
06:00 AM 51.4°F10.8°C 50.1°F10.1°C 95% 2.0 mph W3.2 kmh W 11.0 mph17.7 kmh 29.41 in995.9 mb 0.00 in0.0 mm 0.00 in0.0 mm 0.09 in2.3 mm
05:55 AM 51.4°F10.8°C 50.1°F10.1°C 95% 5.6 mph SW9.0 kmh SW 11.0 mph17.7 kmh 29.41 in995.9 mb 0.00 in0.0 mm 0.00 in0.0 mm 0.09 in2.3 mm
05:50 AM 51.3°F10.7°C 49.9°F9.9°C 95% 6.9 mph SW11.1 kmh SW 10.1 mph16.3 kmh 29.41 in995.9 mb 0.00 in0.0 mm 0.00 in0.0 mm 0.09 in2.3 mm
05:45 AM 51.3°F10.7°C 49.9°F9.9°C 95% 3.6 mph W5.8 kmh W 8.5 mph13.7 kmh 29.41 in995.9 mb 0.00 in0.0 mm 0.00 in0.0 mm 0.09 in2.3 mm
05:40 AM 51.3°F10.7°C 49.9°F9.9°C 95% 3.4 mph W5.5 kmh W 6.9 mph11.1 kmh 29.41 in995.9 mb 0.00 in0.0 mm 0.00 in0.0 mm 0.09 in2.3 mm
05:35 AM 51.3°F10.7°C 49.9°F9.9°C 95% 2.5 mph W4.0 kmh W 6.9 mph11.1 kmh 29.41 in995.9 mb 0.00 in0.0 mm 0.00 in0.0 mm 0.09 in2.3 mm
05:30 AM 51.3°F10.7°C 49.9°F9.9°C 95% 3.6 mph SW5.8 kmh SW 6.5 mph10.5 kmh 29.45 in997.3 mb 0.00 in0.0 mm 0.00 in0.0 mm 0.09 in2.3 mm
05:25 AM 51.3°F10.7°C 49.6°F9.8°C 94% 1.6 mph SW2.6 kmh SW 3.8 mph6.1 kmh 29.45 in997.3 mb 0.00 in0.0 mm 0.00 in0.0 mm 0.09 in2.3 mm
05:20 AM 51.4°F10.8°C 50.1°F10.1°C 95% 2.7 mph W4.3 kmh W 4.9 mph7.9 kmh 29.45 in997.3 mb 0.00 in0.0 mm 0.00 in0.0 mm 0.09 in2.3 mm
05:15 AM 51.4°F10.8°C 50.1°F10.1°C 95% 3.8 mph W6.1 kmh W 8.5 mph13.7 kmh 29.45 in997.3 mb 0.00 in0.0 mm 0.00 in0.0 mm 0.09 in2.3 mm
05:10 AM 51.4°F10.8°C 50.1°F10.1°C 95% 4.5 mph W7.2 kmh W 8.5 mph13.7 kmh 29.45 in997.3 mb 0.00 in0.0 mm 0.00 in0.0 mm 0.09 in2.3 mm
05:05 AM 51.6°F10.9°C 50.2°F10.1°C 95% 4.0 mph W6.4 kmh W 7.8 mph12.6 kmh 29.45 in997.3 mb 0.05 in1.3 mm 0.00 in0.0 mm 0.09 in2.3 mm
05:00 AM 51.4°F10.8°C 50.1°F10.1°C 95% 3.1 mph W5.0 kmh W 7.4 mph11.9 kmh 29.45 in997.3 mb 0.05 in1.3 mm 0.00 in0.0 mm 0.09 in2.3 mm
04:55 AM 51.6°F10.9°C 50.2°F10.1°C 95% 3.1 mph W5.0 kmh W 6.5 mph10.5 kmh 29.45 in997.3 mb 0.05 in1.3 mm 0.00 in0.0 mm 0.09 in2.3 mm
04:50 AM 51.4°F10.8°C 50.1°F10.1°C 95% 5.4 mph WSW8.7 kmh WSW 6.5 mph10.5 kmh 29.45 in997.3 mb 0.05 in1.3 mm 0.00 in0.0 mm 0.09 in2.3 mm
04:45 AM 51.4°F10.8°C 50.1°F10.1°C 95% 4.3 mph WSW6.9 kmh WSW 6.0 mph9.7 kmh 29.47 in998.0 mb 0.05 in1.3 mm 0.00 in0.0 mm 0.09 in2.3 mm
04:40 AM 51.4°F10.8°C 49.8°F9.9°C 94% 3.8 mph WSW6.1 kmh WSW 5.4 mph8.7 kmh 29.47 in998.0 mb 0.05 in1.3 mm 0.00 in0.0 mm 0.09 in2.3 mm
04:35 AM 51.6°F10.9°C 49.9°F9.9°C 94% 1.6 mph SW2.6 kmh SW 9.4 mph15.1 kmh 29.47 in998.0 mb 0.05 in1.3 mm 0.00 in0.0 mm 0.09 in2.3 mm
04:30 AM 51.4°F10.8°C 49.8°F9.9°C 94% 3.8 mph WSW6.1 kmh WSW 9.4 mph15.1 kmh 29.47 in998.0 mb 0.05 in1.3 mm 0.00 in0.0 mm 0.09 in2.3 mm
04:25 AM 51.6°F10.9°C 50.2°F10.1°C 95% 2.5 mph W4.0 kmh W 7.4 mph11.9 kmh 29.47 in998.0 mb 0.05 in1.3 mm 0.00 in0.0 mm 0.09 in2.3 mm
04:20 AM 51.4°F10.8°C 50.1°F10.1°C 95% 6.0 mph W9.7 kmh W 7.6 mph12.2 kmh 29.47 in998.0 mb 0.09 in2.3 mm 0.00 in0.0 mm 0.09 in2.3 mm
04:15 AM 51.4°F10.8°C 49.8°F9.9°C 94% 5.8 mph WSW9.3 kmh WSW 7.6 mph12.2 kmh 29.50 in999.0 mb 0.09 in2.3 mm 0.00 in0.0 mm 0.09 in2.3 mm
04:10 AM 51.4°F10.8°C 49.8°F9.9°C 94% 4.0 mph WSW6.4 kmh WSW 7.4 mph11.9 kmh 29.50 in999.0 mb 0.09 in2.3 mm 0.60 in15.2 mm 0.09 in2.3 mm
04:05 AM 51.6°F10.9°C 49.9°F9.9°C 94% 3.4 mph WSW5.5 kmh WSW 7.4 mph11.9 kmh 29.50 in999.0 mb 0.04 in1.0 mm 0.00 in0.0 mm 0.04 in1.0 mm
04:00 AM 51.6°F10.9°C 50.2°F10.1°C 95% 3.6 mph WSW5.8 kmh WSW 7.6 mph12.2 kmh 29.47 in998.0 mb 0.04 in1.0 mm 0.00 in0.0 mm 0.04 in1.0 mm
03:55 AM 51.4°F10.8°C 49.8°F9.9°C 94% 4.5 mph WSW7.2 kmh WSW 7.6 mph12.2 kmh 29.47 in998.0 mb 0.04 in1.0 mm 0.00 in0.0 mm 0.04 in1.0 mm
03:50 AM 51.4°F10.8°C 49.8°F9.9°C 94% 2.5 mph WSW4.0 kmh WSW 6.0 mph9.7 kmh 29.47 in998.0 mb 0.04 in1.0 mm 0.00 in0.0 mm 0.04 in1.0 mm
03:45 AM 51.4°F10.8°C 49.8°F9.9°C 94% 1.1 mph SW1.8 kmh SW 8.1 mph13.0 kmh 29.47 in998.0 mb 0.04 in1.0 mm 0.00 in0.0 mm 0.04 in1.0 mm
03:40 AM 51.4°F10.8°C 49.8°F9.9°C 94% 4.0 mph SW6.4 kmh SW 8.1 mph13.0 kmh 29.47 in998.0 mb 0.04 in1.0 mm 0.00 in0.0 mm 0.04 in1.0 mm
03:35 AM 51.3°F10.7°C 49.9°F9.9°C 95% 4.3 mph WSW6.9 kmh WSW 8.7 mph14.0 kmh 29.47 in998.0 mb 0.04 in1.0 mm 0.00 in0.0 mm 0.04 in1.0 mm
03:30 AM 51.3°F10.7°C 49.9°F9.9°C 95% 6.9 mph W11.1 kmh W 8.7 mph14.0 kmh 29.47 in998.0 mb 0.04 in1.0 mm 0.00 in0.0 mm 0.04 in1.0 mm
03:25 AM 51.1°F10.6°C 49.7°F9.8°C 95% 5.6 mph W9.0 kmh W 10.3 mph16.6 kmh 29.47 in998.0 mb 0.04 in1.0 mm 0.48 in12.2 mm 0.04 in1.0 mm
03:20 AM 51.1°F10.6°C 49.7°F9.8°C 95% 4.3 mph WSW6.9 kmh WSW 10.3 mph16.6 kmh 29.47 in998.0 mb 0.00 in0.0 mm 0.00 in0.0 mm 0.00 in0.0 mm
03:15 AM 51.1°F10.6°C 49.7°F9.8°C 95% 2.2 mph SW3.5 kmh SW 3.8 mph6.1 kmh 29.47 in998.0 mb 0.00 in0.0 mm 0.00 in0.0 mm 0.00 in0.0 mm
03:10 AM 51.3°F10.7°C 49.9°F9.9°C 95% 1.6 mph WSW2.6 kmh WSW 5.4 mph8.7 kmh 29.47 in998.0 mb 0.00 in0.0 mm 0.00 in0.0 mm 0.00 in0.0 mm
03:05 AM 51.4°F10.8°C 50.1°F10.1°C 95% 1.3 mph W2.1 kmh W 6.5 mph10.5 kmh 29.47 in998.0 mb 0.00 in0.0 mm 0.00 in0.0 mm 0.00 in0.0 mm
03:00 AM 51.6°F10.9°C 50.2°F10.1°C 95% 2.2 mph W3.5 kmh W 6.5 mph10.5 kmh 29.47 in998.0 mb 0.00 in0.0 mm 0.00 in0.0 mm 0.00 in0.0 mm
02:55 AM 51.4°F10.8°C 50.3°F10.2°C 96% 2.5 mph W4.0 kmh W 5.6 mph9.0 kmh 29.47 in998.0 mb 0.00 in0.0 mm 0.00 in0.0 mm 0.00 in0.0 mm
02:50 AM 51.4°F10.8°C 50.3°F10.2°C 96% 4.3 mph NW6.9 kmh NW 6.5 mph10.5 kmh 29.47 in998.0 mb 0.00 in0.0 mm 0.00 in0.0 mm 0.00 in0.0 mm
02:45 AM 51.4°F10.8°C 50.3°F10.2°C 96% 5.6 mph WNW9.0 kmh WNW 6.5 mph10.5 kmh 29.50 in999.0 mb 0.00 in0.0 mm 0.00 in0.0 mm 0.00 in0.0 mm
02:40 AM 51.4°F10.8°C 50.3°F10.2°C 96% 6.3 mph WSW10.1 kmh WSW 6.5 mph10.5 kmh 29.50 in999.0 mb 0.00 in0.0 mm 0.00 in0.0 mm 0.00 in0.0 mm
02:35 AM 51.4°F10.8°C 50.6°F10.3°C 97% 1.6 mph WSW2.6 kmh WSW 9.2 mph14.8 kmh 29.50 in999.0 mb 0.00 in0.0 mm 0.00 in0.0 mm 0.00 in0.0 mm
02:30 AM 51.6°F10.9°C 50.8°F10.4°C 97% 2.5 mph WSW4.0 kmh WSW 9.2 mph14.8 kmh 29.53 in1000.0 mb 0.00 in0.0 mm 0.00 in0.0 mm 0.00 in0.0 mm
02:25 AM 51.4°F10.8°C 50.6°F10.3°C 97% 2.0 mph SW3.2 kmh SW 5.4 mph8.7 kmh 29.53 in1000.0 mb 0.00 in0.0 mm 0.00 in0.0 mm 0.00 in0.0 mm
02:20 AM 51.4°F10.8°C 50.6°F10.3°C 97% 1.6 mph WSW2.6 kmh WSW 9.6 mph15.4 kmh 29.53 in1000.0 mb 0.00 in0.0 mm 0.00 in0.0 mm 0.00 in0.0 mm
02:15 AM 51.6°F10.9°C 50.8°F10.4°C 97% 4.9 mph WSW7.9 kmh WSW 9.6 mph15.4 kmh 29.53 in1000.0 mb 0.00 in0.0 mm 0.00 in0.0 mm 0.00 in0.0 mm
02:10 AM 51.6°F10.9°C 51.1°F10.6°C 98% 2.9 mph SSW4.7 kmh SSW 6.9 mph11.1 kmh 29.53 in1000.0 mb 0.00 in0.0 mm 0.00 in0.0 mm 0.00 in0.0 mm
02:05 AM 51.6°F10.9°C 51.1°F10.6°C 98% 2.5 mph SW4.0 kmh SW 7.6 mph12.2 kmh 29.53 in1000.0 mb 0.00 in0.0 mm 0.00 in0.0 mm 0.00 in0.0 mm
02:00 AM 51.6°F10.9°C 51.1°F10.6°C 98% 3.1 mph SW5.0 kmh SW 7.6 mph12.2 kmh 29.53 in1000.0 mb 0.00 in0.0 mm 0.00 in0.0 mm 0.00 in0.0 mm
01:55 AM 51.6°F10.9°C 51.3°F10.7°C 99% 1.1 mph S1.8 kmh S 6.5 mph10.5 kmh 29.53 in1000.0 mb 0.00 in0.0 mm 0.00 in0.0 mm 0.00 in0.0 mm
01:50 AM 51.4°F10.8°C 51.2°F10.7°C 99% 2.0 mph S3.2 kmh S 5.6 mph9.0 kmh 29.53 in1000.0 mb 0.00 in0.0 mm 0.00 in0.0 mm 0.00 in0.0 mm
01:45 AM 51.4°F10.8°C 51.2°F10.7°C 99% 2.2 mph S3.5 kmh S 5.8 mph9.3 kmh 29.53 in1000.0 mb 0.00 in0.0 mm 0.00 in0.0 mm 0.00 in0.0 mm
01:40 AM 51.6°F10.9°C 51.3°F10.7°C 99% 0.9 mph SW1.4 kmh SW 8.7 mph14.0 kmh 29.53 in1000.0 mb 0.00 in0.0 mm 0.00 in0.0 mm 0.00 in0.0 mm
01:35 AM 51.6°F10.9°C 51.3°F10.7°C 99% 3.8 mph WSW6.1 kmh WSW 8.7 mph14.0 kmh 29.53 in1000.0 mb 0.00 in0.0 mm 0.00 in0.0 mm 0.00 in0.0 mm
01:30 AM 51.4°F10.8°C 51.2°F10.7°C 99% 4.3 mph W6.9 kmh W 8.5 mph13.7 kmh 29.50 in999.0 mb 0.00 in0.0 mm 0.00 in0.0 mm 0.00 in0.0 mm
01:25 AM 51.4°F10.8°C 51.2°F10.7°C 99% 3.1 mph WSW5.0 kmh WSW 10.5 mph16.9 kmh 29.50 in999.0 mb 0.00 in0.0 mm 0.00 in0.0 mm 0.00 in0.0 mm
01:20 AM 51.3°F10.7°C 51.0°F10.6°C 99% 6.5 mph W10.5 kmh W 12.1 mph19.5 kmh 29.50 in999.0 mb 0.00 in0.0 mm 0.00 in0.0 mm 0.00 in0.0 mm
01:15 AM 51.3°F10.7°C 51.0°F10.6°C 99% 3.1 mph W5.0 kmh W 12.1 mph19.5 kmh 29.53 in1000.0 mb 0.00 in0.0 mm 0.00 in0.0 mm 0.00 in0.0 mm
01:10 AM 50.7°F10.4°C 50.4°F10.2°C 99% 6.5 mph W10.5 kmh W 8.5 mph13.7 kmh 29.53 in1000.0 mb 0.00 in0.0 mm 0.00 in0.0 mm 0.00 in0.0 mm
01:05 AM 50.7°F10.4°C 50.4°F10.2°C 99% 4.0 mph WNW6.4 kmh WNW 7.8 mph12.6 kmh 29.53 in1000.0 mb 0.00 in0.0 mm 0.00 in0.0 mm 0.00 in0.0 mm
01:00 AM 50.5°F10.3°C 50.3°F10.2°C 99% 3.6 mph W5.8 kmh W 7.8 mph12.6 kmh 29.56 in1001.0 mb 0.00 in0.0 mm 0.00 in0.0 mm 0.00 in0.0 mm
12:55 AM 50.4°F10.2°C 50.1°F10.1°C 99% 3.4 mph W5.5 kmh W 6.5 mph10.5 kmh 29.56 in1001.0 mb 0.00 in0.0 mm 0.00 in0.0 mm 0.00 in0.0 mm
12:50 AM 50.5°F10.3°C 50.3°F10.2°C 99% 2.7 mph WNW4.3 kmh WNW 6.5 mph10.5 kmh 29.56 in1001.0 mb 0.00 in0.0 mm 0.00 in0.0 mm 0.00 in0.0 mm
12:45 AM 50.4°F10.2°C 50.1°F10.1°C 99% 3.4 mph W5.5 kmh W 4.9 mph7.9 kmh 29.56 in1001.0 mb 0.00 in0.0 mm 0.00 in0.0 mm 0.00 in0.0 mm
12:40 AM 50.2°F10.1°C 49.9°F9.9°C 99% 2.5 mph W4.0 kmh W 5.4 mph8.7 kmh 29.56 in1001.0 mb 0.00 in0.0 mm 0.00 in0.0 mm 0.00 in0.0 mm
12:35 AM 50.2°F10.1°C 49.9°F9.9°C 99% 2.5 mph W4.0 kmh W 5.4 mph8.7 kmh 29.56 in1001.0 mb 0.00 in0.0 mm 0.00 in0.0 mm 0.00 in0.0 mm
12:30 AM 49.8°F9.9°C 49.6°F9.8°C 99% 3.6 mph WSW5.8 kmh WSW 5.6 mph9.0 kmh 29.56 in1001.0 mb 0.00 in0.0 mm 0.00 in0.0 mm 0.00 in0.0 mm
12:25 AM 49.6°F9.8°C 49.4°F9.7°C 99% 3.8 mph WSW6.1 kmh WSW 5.6 mph9.0 kmh 29.56 in1001.0 mb 0.00 in0.0 mm 0.00 in0.0 mm 0.00 in0.0 mm
12:20 AM 49.3°F9.6°C 49.0°F9.4°C 99% 2.0 mph WSW3.2 kmh WSW 5.4 mph8.7 kmh 29.56 in1001.0 mb 0.00 in0.0 mm 0.00 in0.0 mm 0.00 in0.0 mm
12:15 AM 48.9°F9.4°C 48.7°F9.3°C 99% 2.5 mph WSW4.0 kmh WSW 4.3 mph6.9 kmh 29.59 in1002.0 mb 0.00 in0.0 mm 0.00 in0.0 mm 0.00 in0.0 mm
12:10 AM 48.7°F9.3°C 48.5°F9.2°C 99% Calm Calm 3.6 mph5.8 kmh 29.59 in1002.0 mb 0.00 in0.0 mm 0.00 in0.0 mm 0.00 in0.0 mm
12:05 AM 48.7°F9.3°C 48.5°F9.2°C 99% 2.5 mph NE4.0 kmh NE 3.6 mph5.8 kmh 29.59 in1002.0 mb 0.00 in0.0 mm 0.00 in0.0 mm 0.00 in0.0 mm
12:00 AM 48.6°F9.2°C 48.3°F9.1°C 99% 1.6 mph SSE2.6 kmh SSE 4.5 mph7.2 kmh 29.59 in1002.0 mb 0.00 in0.0 mm 0.00 in0.0 mm 0.00 in0.0 mm